sensor_id;sensor_type;location;lat;lon;timestamp;P1;durP1;ratioP1;P2;durP2;ratioP2
11066;SDS011;29763;50.904;5.530;2022-08-01T00:00:27;3.28;;;2.72;;
11066;SDS011;29763;50.904;5.530;2022-08-01T00:02:53;4.70;;;2.70;;
11066;SDS011;29763;50.904;5.530;2022-08-01T00:05:19;4.45;;;2.88;;
11066;SDS011;29763;50.904;5.530;2022-08-01T00:07:44;3.10;;;2.80;;
11066;SDS011;29763;50.904;5.530;2022-08-01T00:10:12;4.60;;;2.78;;
11066;SDS011;29763;50.904;5.530;2022-08-01T00:12:39;3.53;;;2.70;;
11066;SDS011;29763;50.904;5.530;2022-08-01T00:15:06;5.35;;;3.20;;
11066;SDS011;29763;50.904;5.530;2022-08-01T00:17:33;3.42;;;2.80;;
11066;SDS011;29763;50.904;5.530;2022-08-01T00:20:00;4.30;;;2.80;;
11066;SDS011;29763;50.904;5.530;2022-08-01T00:22:28;3.00;;;2.75;;
11066;SDS011;29763;50.904;5.530;2022-08-01T00:24:53;4.00;;;2.83;;
11066;SDS011;29763;50.904;5.530;2022-08-01T00:27:19;4.55;;;3.47;;
11066;SDS011;29763;50.904;5.530;2022-08-01T00:29:45;3.17;;;2.88;;
11066;SDS011;29763;50.904;5.530;2022-08-01T00:32:10;5.00;;;3.53;;
11066;SDS011;29763;50.904;5.530;2022-08-01T00:34:36;3.95;;;3.05;;
11066;SDS011;29763;50.904;5.530;2022-08-01T00:37:02;3.97;;;2.88;;
11066;SDS011;29763;50.904;5.530;2022-08-01T00:39:27;3.20;;;2.90;;
11066;SDS011;29763;50.904;5.530;2022-08-01T00:41:53;3.75;;;3.03;;
11066;SDS011;29763;50.904;5.530;2022-08-01T00:44:19;5.25;;;2.88;;
11066;SDS011;29763;50.904;5.530;2022-08-01T00:46:44;4.47;;;2.80;;
11066;SDS011;29763;50.904;5.530;2022-08-01T00:49:10;4.55;;;3.20;;
11066;SDS011;29763;50.904;5.530;2022-08-01T00:51:35;3.45;;;2.80;;
11066;SDS011;29763;50.904;5.530;2022-08-01T00:54:01;3.05;;;2.78;;
11066;SDS011;29763;50.904;5.530;2022-08-01T00:56:27;3.22;;;2.90;;
11066;SDS011;29763;50.904;5.530;2022-08-01T00:58:54;4.78;;;3.10;;
11066;SDS011;29763;50.904;5.530;2022-08-01T01:01:20;3.42;;;2.95;;
11066;SDS011;29763;50.904;5.530;2022-08-01T01:03:49;3.80;;;2.80;;
11066;SDS011;29763;50.904;5.530;2022-08-01T01:14:31;5.00;;;3.20;;
11066;SDS011;29763;50.904;5.530;2022-08-01T01:17:03;3.70;;;3.17;;
11066;SDS011;29763;50.904;5.530;2022-08-01T01:19:33;3.40;;;3.10;;
11066;SDS011;29763;50.904;5.530;2022-08-01T01:25:10;3.58;;;3.05;;
11066;SDS011;29763;50.904;5.530;2022-08-01T01:27:51;3.92;;;3.20;;
11066;SDS011;29763;50.904;5.530;2022-08-01T01:30:30;3.60;;;3.28;;
11066;SDS011;29763;50.904;5.530;2022-08-01T01:32:58;4.90;;;3.20;;
11066;SDS011;29763;50.904;5.530;2022-08-01T01:35:28;4.40;;;3.28;;
11066;SDS011;29763;50.904;5.530;2022-08-01T01:38:01;4.43;;;3.53;;
11066;SDS011;29763;50.904;5.530;2022-08-01T01:40:32;4.57;;;3.30;;
11066;SDS011;29763;50.904;5.530;2022-08-01T01:42:58;4.50;;;3.35;;
11066;SDS011;29763;50.904;5.530;2022-08-01T01:45:25;5.63;;;3.17;;
11066;SDS011;29763;50.904;5.530;2022-08-01T01:47:52;3.72;;;3.30;;
11066;SDS011;29763;50.904;5.530;2022-08-01T01:50:22;3.53;;;3.00;;
11066;SDS011;29763;50.904;5.530;2022-08-01T01:52:49;3.70;;;3.30;;
11066;SDS011;29763;50.904;5.530;2022-08-01T01:55:16;3.90;;;3.20;;
11066;SDS011;29763;50.904;5.530;2022-08-01T01:57:43;3.15;;;2.75;;
11066;SDS011;29763;50.904;5.530;2022-08-01T02:00:10;4.38;;;3.30;;
11066;SDS011;29763;50.904;5.530;2022-08-01T02:02:37;5.13;;;3.10;;
11066;SDS011;29763;50.904;5.530;2022-08-01T02:05:05;4.13;;;3.25;;
11066;SDS011;29763;50.904;5.530;2022-08-01T02:07:34;3.83;;;3.50;;
11066;SDS011;29763;50.904;5.530;2022-08-01T02:10:02;3.67;;;3.08;;
11066;SDS011;29763;50.904;5.530;2022-08-01T02:12:33;5.10;;;3.38;;
11066;SDS011;29763;50.904;5.530;2022-08-01T02:15:01;3.78;;;3.42;;
11066;SDS011;29763;50.904;5.530;2022-08-01T02:17:28;4.05;;;3.03;;
11066;SDS011;29763;50.904;5.530;2022-08-01T02:19:55;3.40;;;3.10;;
11066;SDS011;29763;50.904;5.530;2022-08-01T02:22:36;5.90;;;3.35;;
11066;SDS011;29763;50.904;5.530;2022-08-01T02:25:10;4.75;;;3.15;;
11066;SDS011;29763;50.904;5.530;2022-08-01T02:30:35;5.00;;;3.17;;
11066;SDS011;29763;50.904;5.530;2022-08-01T02:33:08;3.50;;;2.97;;
11066;SDS011;29763;50.904;5.530;2022-08-01T02:35:38;4.25;;;3.10;;
11066;SDS011;29763;50.904;5.530;2022-08-01T02:38:08;3.17;;;2.90;;
11066;SDS011;29763;50.904;5.530;2022-08-01T02:40:36;3.88;;;3.22;;
11066;SDS011;29763;50.904;5.530;2022-08-01T02:43:05;4.80;;;3.60;;
11066;SDS011;29763;50.904;5.530;2022-08-01T02:45:33;5.80;;;4.10;;
11066;SDS011;29763;50.904;5.530;2022-08-01T02:48:05;5.57;;;3.30;;
11066;SDS011;29763;50.904;5.530;2022-08-01T02:50:34;4.32;;;3.10;;
11066;SDS011;29763;50.904;5.530;2022-08-01T02:53:02;5.38;;;3.50;;
11066;SDS011;29763;50.904;5.530;2022-08-01T02:55:31;4.65;;;3.40;;
11066;SDS011;29763;50.904;5.530;2022-08-01T02:57:59;5.88;;;3.40;;
11066;SDS011;29763;50.904;5.530;2022-08-01T03:00:26;3.75;;;3.45;;
11066;SDS011;29763;50.904;5.530;2022-08-01T03:02:54;6.18;;;3.22;;
11066;SDS011;29763;50.904;5.530;2022-08-01T03:05:21;4.47;;;3.03;;
11066;SDS011;29763;50.904;5.530;2022-08-01T03:07:48;4.47;;;3.45;;
11066;SDS011;29763;50.904;5.530;2022-08-01T03:10:15;4.50;;;3.30;;
11066;SDS011;29763;50.904;5.530;2022-08-01T03:12:42;5.75;;;3.33;;
11066;SDS011;29763;50.904;5.530;2022-08-01T03:15:09;4.57;;;3.20;;
11066;SDS011;29763;50.904;5.530;2022-08-01T03:17:35;6.22;;;3.53;;
11066;SDS011;29763;50.904;5.530;2022-08-01T03:20:03;4.25;;;3.53;;
11066;SDS011;29763;50.904;5.530;2022-08-01T03:22:31;6.22;;;3.67;;
11066;SDS011;29763;50.904;5.530;2022-08-01T03:24:58;5.88;;;3.40;;
11066;SDS011;29763;50.904;5.530;2022-08-01T03:27:26;5.35;;;3.72;;
11066;SDS011;29763;50.904;5.530;2022-08-01T03:29:54;4.78;;;3.60;;
11066;SDS011;29763;50.904;5.530;2022-08-01T03:32:22;4.93;;;3.65;;
11066;SDS011;29763;50.904;5.530;2022-08-01T03:34:50;4.78;;;3.35;;
11066;SDS011;29763;50.904;5.530;2022-08-01T03:37:24;4.22;;;3.20;;
11066;SDS011;29763;50.904;5.530;2022-08-01T03:42:42;4.95;;;3.38;;
11066;SDS011;29763;50.904;5.530;2022-08-01T03:45:23;4.45;;;3.67;;
11066;SDS011;29763;50.904;5.530;2022-08-01T03:47:54;7.25;;;3.78;;
11066;SDS011;29763;50.904;5.530;2022-08-01T03:50:25;9.65;;;4.50;;
11066;SDS011;29763;50.904;5.530;2022-08-01T03:52:53;7.40;;;4.07;;
11066;SDS011;29763;50.904;5.530;2022-08-01T03:55:22;6.95;;;4.00;;
11066;SDS011;29763;50.904;5.530;2022-08-01T03:57:49;5.93;;;3.60;;
11066;SDS011;29763;50.904;5.530;2022-08-01T04:00:16;5.65;;;3.88;;
11066;SDS011;29763;50.904;5.530;2022-08-01T04:02:44;7.43;;;4.05;;
11066;SDS011;29763;50.904;5.530;2022-08-01T04:05:11;6.55;;;3.97;;
11066;SDS011;29763;50.904;5.530;2022-08-01T04:07:37;8.93;;;4.57;;
11066;SDS011;29763;50.904;5.530;2022-08-01T04:10:04;6.13;;;4.50;;
11066;SDS011;29763;50.904;5.530;2022-08-01T04:12:30;4.25;;;3.80;;
11066;SDS011;29763;50.904;5.530;2022-08-01T04:14:57;7.63;;;4.25;;
11066;SDS011;29763;50.904;5.530;2022-08-01T04:17:23;7.82;;;4.88;;
11066;SDS011;29763;50.904;5.530;2022-08-01T04:19:49;6.93;;;4.88;;
11066;SDS011;29763;50.904;5.530;2022-08-01T04:22:15;4.95;;;4.30;;
11066;SDS011;29763;50.904;5.530;2022-08-01T04:24:42;8.45;;;5.07;;
11066;SDS011;29763;50.904;5.530;2022-08-01T04:27:17;8.93;;;5.25;;
11066;SDS011;29763;50.904;5.530;2022-08-01T04:29:47;6.10;;;4.53;;
11066;SDS011;29763;50.904;5.530;2022-08-01T04:32:16;7.25;;;4.47;;
11066;SDS011;29763;50.904;5.530;2022-08-01T04:34:46;7.82;;;5.18;;
11066;SDS011;29763;50.904;5.530;2022-08-01T04:37:14;6.05;;;4.80;;
11066;SDS011;29763;50.904;5.530;2022-08-01T04:39:43;7.80;;;5.65;;
11066;SDS011;29763;50.904;5.530;2022-08-01T04:42:11;8.75;;;5.53;;
11066;SDS011;29763;50.904;5.530;2022-08-01T04:44:39;6.13;;;4.82;;
11066;SDS011;29763;50.904;5.530;2022-08-01T04:47:05;7.80;;;5.53;;
11066;SDS011;29763;50.904;5.530;2022-08-01T04:49:32;8.95;;;5.75;;
11066;SDS011;29763;50.904;5.530;2022-08-01T04:52:01;6.22;;;5.28;;
11066;SDS011;29763;50.904;5.530;2022-08-01T04:54:27;8.40;;;6.07;;
11066;SDS011;29763;50.904;5.530;2022-08-01T04:56:54;6.95;;;6.03;;
11066;SDS011;29763;50.904;5.530;2022-08-01T04:59:25;10.05;;;6.32;;
11066;SDS011;29763;50.904;5.530;2022-08-01T05:02:07;8.57;;;6.30;;
11066;SDS011;29763;50.904;5.530;2022-08-01T05:04:35;8.35;;;6.30;;
11066;SDS011;29763;50.904;5.530;2022-08-01T05:07:01;9.23;;;6.25;;
11066;SDS011;29763;50.904;5.530;2022-08-01T05:09:27;8.65;;;6.60;;
11066;SDS011;29763;50.904;5.530;2022-08-01T05:11:52;9.25;;;6.65;;
11066;SDS011;29763;50.904;5.530;2022-08-01T05:14:18;10.00;;;6.90;;
11066;SDS011;29763;50.904;5.530;2022-08-01T05:16:44;9.27;;;6.78;;
11066;SDS011;29763;50.904;5.530;2022-08-01T05:19:10;7.40;;;6.25;;
11066;SDS011;29763;50.904;5.530;2022-08-01T05:21:36;7.50;;;6.25;;
11066;SDS011;29763;50.904;5.530;2022-08-01T05:24:02;10.98;;;6.32;;
11066;SDS011;29763;50.904;5.530;2022-08-01T05:26:31;10.00;;;6.35;;
11066;SDS011;29763;50.904;5.530;2022-08-01T05:28:58;10.25;;;7.00;;
11066;SDS011;29763;50.904;5.530;2022-08-01T05:31:24;10.68;;;6.50;;
11066;SDS011;29763;50.904;5.530;2022-08-01T05:33:50;8.45;;;6.90;;
11066;SDS011;29763;50.904;5.530;2022-08-01T05:36:15;7.65;;;6.53;;
11066;SDS011;29763;50.904;5.530;2022-08-01T05:38:41;9.27;;;6.10;;
11066;SDS011;29763;50.904;5.530;2022-08-01T05:41:06;9.55;;;6.40;;
11066;SDS011;29763;50.904;5.530;2022-08-01T05:43:32;7.82;;;6.43;;
11066;SDS011;29763;50.904;5.530;2022-08-01T05:45:58;11.23;;;6.70;;
11066;SDS011;29763;50.904;5.530;2022-08-01T05:48:23;8.73;;;6.90;;
11066;SDS011;29763;50.904;5.530;2022-08-01T05:50:49;11.30;;;7.28;;
11066;SDS011;29763;50.904;5.530;2022-08-01T05:53:15;8.32;;;6.65;;
11066;SDS011;29763;50.904;5.530;2022-08-01T05:55:41;9.48;;;7.30;;
11066;SDS011;29763;50.904;5.530;2022-08-01T05:58:06;8.68;;;6.45;;
11066;SDS011;29763;50.904;5.530;2022-08-01T06:00:32;12.23;;;8.20;;
11066;SDS011;29763;50.904;5.530;2022-08-01T06:02:58;10.00;;;7.00;;
11066;SDS011;29763;50.904;5.530;2022-08-01T06:05:23;10.38;;;7.40;;
11066;SDS011;29763;50.904;5.530;2022-08-01T06:07:49;12.10;;;8.38;;
11066;SDS011;29763;50.904;5.530;2022-08-01T06:10:15;9.50;;;8.13;;
11066;SDS011;29763;50.904;5.530;2022-08-01T06:12:40;10.93;;;8.73;;
11066;SDS011;29763;50.904;5.530;2022-08-01T06:15:06;11.07;;;8.23;;
11066;SDS011;29763;50.904;5.530;2022-08-01T06:17:32;11.57;;;9.18;;
11066;SDS011;29763;50.904;5.530;2022-08-01T06:19:58;11.68;;;9.40;;
11066;SDS011;29763;50.904;5.530;2022-08-01T06:22:24;14.02;;;10.27;;
11066;SDS011;29763;50.904;5.530;2022-08-01T06:24:50;14.27;;;10.20;;
11066;SDS011;29763;50.904;5.530;2022-08-01T06:27:15;12.05;;;10.85;;
11066;SDS011;29763;50.904;5.530;2022-08-01T06:29:41;12.55;;;11.27;;
11066;SDS011;29763;50.904;5.530;2022-08-01T06:32:08;14.70;;;12.48;;
11066;SDS011;29763;50.904;5.530;2022-08-01T06:34:34;14.30;;;12.30;;
11066;SDS011;29763;50.904;5.530;2022-08-01T06:37:00;17.45;;;12.88;;
11066;SDS011;29763;50.904;5.530;2022-08-01T06:39:26;12.80;;;11.57;;
11066;SDS011;29763;50.904;5.530;2022-08-01T06:41:51;15.32;;;12.95;;
11066;SDS011;29763;50.904;5.530;2022-08-01T06:44:17;15.02;;;13.43;;
11066;SDS011;29763;50.904;5.530;2022-08-01T06:46:43;13.75;;;12.35;;
11066;SDS011;29763;50.904;5.530;2022-08-01T06:49:08;14.88;;;13.23;;
11066;SDS011;29763;50.904;5.530;2022-08-01T06:51:34;15.40;;;13.85;;
11066;SDS011;29763;50.904;5.530;2022-08-01T06:53:59;16.33;;;13.60;;
11066;SDS011;29763;50.904;5.530;2022-08-01T06:56:25;14.30;;;12.80;;
11066;SDS011;29763;50.904;5.530;2022-08-01T06:58:51;15.18;;;13.57;;
11066;SDS011;29763;50.904;5.530;2022-08-01T07:01:16;18.70;;;14.20;;
11066;SDS011;29763;50.904;5.530;2022-08-01T07:03:42;17.20;;;14.45;;
11066;SDS011;29763;50.904;5.530;2022-08-01T07:06:08;17.00;;;14.45;;
11066;SDS011;29763;50.904;5.530;2022-08-01T07:08:34;15.05;;;13.05;;
11066;SDS011;29763;50.904;5.530;2022-08-01T07:11:00;16.65;;;14.85;;
11066;SDS011;29763;50.904;5.530;2022-08-01T07:13:26;15.25;;;13.48;;
11066;SDS011;29763;50.904;5.530;2022-08-01T07:15:52;16.55;;;13.70;;
11066;SDS011;29763;50.904;5.530;2022-08-01T07:18:18;14.00;;;12.45;;
11066;SDS011;29763;50.904;5.530;2022-08-01T07:20:44;15.93;;;13.25;;
11066;SDS011;29763;50.904;5.530;2022-08-01T07:23:11;15.90;;;11.98;;
11066;SDS011;29763;50.904;5.530;2022-08-01T07:25:37;13.35;;;11.95;;
11066;SDS011;29763;50.904;5.530;2022-08-01T07:28:03;15.07;;;12.32;;
11066;SDS011;29763;50.904;5.530;2022-08-01T07:30:29;14.85;;;12.25;;
11066;SDS011;29763;50.904;5.530;2022-08-01T07:32:55;14.50;;;12.38;;
11066;SDS011;29763;50.904;5.530;2022-08-01T07:35:21;13.13;;;11.73;;
11066;SDS011;29763;50.904;5.530;2022-08-01T07:37:47;13.05;;;11.18;;
11066;SDS011;29763;50.904;5.530;2022-08-01T07:40:13;12.80;;;11.35;;
11066;SDS011;29763;50.904;5.530;2022-08-01T07:42:39;13.23;;;10.15;;
11066;SDS011;29763;50.904;5.530;2022-08-01T07:45:08;10.85;;;9.75;;
11066;SDS011;29763;50.904;5.530;2022-08-01T07:47:34;13.55;;;11.18;;
11066;SDS011;29763;50.904;5.530;2022-08-01T07:50:00;13.25;;;10.38;;
11066;SDS011;29763;50.904;5.530;2022-08-01T07:52:28;10.38;;;9.30;;
11066;SDS011;29763;50.904;5.530;2022-08-01T07:54:55;10.85;;;9.75;;
11066;SDS011;29763;50.904;5.530;2022-08-01T07:57:21;11.25;;;9.85;;
11066;SDS011;29763;50.904;5.530;2022-08-01T07:59:48;10.10;;;9.05;;
11066;SDS011;29763;50.904;5.530;2022-08-01T08:02:13;11.82;;;9.48;;
11066;SDS011;29763;50.904;5.530;2022-08-01T08:04:39;10.70;;;9.50;;
11066;SDS011;29763;50.904;5.530;2022-08-01T08:07:05;12.38;;;9.57;;
11066;SDS011;29763;50.904;5.530;2022-08-01T08:09:31;14.25;;;10.15;;
11066;SDS011;29763;50.904;5.530;2022-08-01T08:11:57;10.45;;;9.35;;
11066;SDS011;29763;50.904;5.530;2022-08-01T08:14:26;10.95;;;9.40;;
11066;SDS011;29763;50.904;5.530;2022-08-01T08:16:51;10.95;;;8.85;;
11066;SDS011;29763;50.904;5.530;2022-08-01T08:19:17;10.25;;;9.27;;
11066;SDS011;29763;50.904;5.530;2022-08-01T08:21:43;11.80;;;9.13;;
11066;SDS011;29763;50.904;5.530;2022-08-01T08:24:09;9.38;;;8.48;;
11066;SDS011;29763;50.904;5.530;2022-08-01T08:26:53;9.25;;;8.25;;
11066;SDS011;29763;50.904;5.530;2022-08-01T08:29:23;10.25;;;8.48;;
11066;SDS011;29763;50.904;5.530;2022-08-01T08:31:50;9.38;;;7.25;;
11066;SDS011;29763;50.904;5.530;2022-08-01T08:34:17;8.60;;;7.57;;
11066;SDS011;29763;50.904;5.530;2022-08-01T08:36:42;9.95;;;8.18;;
11066;SDS011;29763;50.904;5.530;2022-08-01T08:39:08;10.50;;;8.55;;
11066;SDS011;29763;50.904;5.530;2022-08-01T08:41:34;9.70;;;8.80;;
11066;SDS011;29763;50.904;5.530;2022-08-01T08:44:03;9.18;;;7.70;;
11066;SDS011;29763;50.904;5.530;2022-08-01T08:46:31;9.32;;;8.40;;
11066;SDS011;29763;50.904;5.530;2022-08-01T08:48:58;7.20;;;6.50;;
11066;SDS011;29763;50.904;5.530;2022-08-01T08:51:26;9.40;;;8.40;;
11066;SDS011;29763;50.904;5.530;2022-08-01T08:53:55;9.27;;;7.93;;
11066;SDS011;29763;50.904;5.530;2022-08-01T08:56:23;8.52;;;7.68;;
11066;SDS011;29763;50.904;5.530;2022-08-01T08:58:50;7.95;;;7.25;;
11066;SDS011;29763;50.904;5.530;2022-08-01T09:01:16;7.32;;;6.55;;
11066;SDS011;29763;50.904;5.530;2022-08-01T09:03:43;7.20;;;6.50;;
11066;SDS011;29763;50.904;5.530;2022-08-01T09:06:09;6.13;;;5.57;;
11066;SDS011;29763;50.904;5.530;2022-08-01T09:08:35;18.90;;;6.97;;
11066;SDS011;29763;50.904;5.530;2022-08-01T09:11:01;5.97;;;5.38;;
11066;SDS011;29763;50.904;5.530;2022-08-01T09:13:27;6.75;;;5.75;;
11066;SDS011;29763;50.904;5.530;2022-08-01T09:15:53;5.35;;;4.85;;
11066;SDS011;29763;50.904;5.530;2022-08-01T09:18:30;6.55;;;5.20;;
11066;SDS011;29763;50.904;5.530;2022-08-01T09:23:52;4.60;;;4.30;;
11066;SDS011;29763;50.904;5.530;2022-08-01T09:26:30;7.43;;;4.50;;
11066;SDS011;29763;50.904;5.530;2022-08-01T09:29:02;6.15;;;4.70;;
11066;SDS011;29763;50.904;5.530;2022-08-01T09:31:38;4.63;;;4.22;;
11066;SDS011;29763;50.904;5.530;2022-08-01T09:34:12;4.35;;;4.05;;
11066;SDS011;29763;50.904;5.530;2022-08-01T09:36:48;5.10;;;4.60;;
11066;SDS011;29763;50.904;5.530;2022-08-01T09:39:19;5.13;;;4.72;;
11066;SDS011;29763;50.904;5.530;2022-08-01T09:41:47;4.28;;;3.88;;
11066;SDS011;29763;50.904;5.530;2022-08-01T09:44:13;5.18;;;4.78;;
11066;SDS011;29763;50.904;5.530;2022-08-01T09:46:55;5.13;;;4.72;;
11066;SDS011;29763;50.904;5.530;2022-08-01T09:49:30;5.30;;;4.82;;
11066;SDS011;29763;50.904;5.530;2022-08-01T09:52:13;4.78;;;4.40;;
11066;SDS011;29763;50.904;5.530;2022-08-01T09:54:39;6.43;;;5.25;;
11066;SDS011;29763;50.904;5.530;2022-08-01T09:57:13;5.05;;;4.57;;
11066;SDS011;29763;50.904;5.530;2022-08-01T09:59:42;10.48;;;5.60;;
11066;SDS011;29763;50.904;5.530;2022-08-01T10:02:10;4.70;;;4.40;;
11066;SDS011;29763;50.904;5.530;2022-08-01T10:04:45;5.25;;;4.32;;
11066;SDS011;29763;50.904;5.530;2022-08-01T10:07:12;4.80;;;4.50;;
11066;SDS011;29763;50.904;5.530;2022-08-01T10:09:40;4.63;;;4.32;;
11066;SDS011;29763;50.904;5.530;2022-08-01T10:12:07;4.60;;;4.30;;
11066;SDS011;29763;50.904;5.530;2022-08-01T10:14:33;5.28;;;4.78;;
11066;SDS011;29763;50.904;5.530;2022-08-01T10:17:04;5.38;;;4.88;;
11066;SDS011;29763;50.904;5.530;2022-08-01T10:19:34;5.13;;;4.40;;
11066;SDS011;29763;50.904;5.530;2022-08-01T10:22:03;4.50;;;4.20;;
11066;SDS011;29763;50.904;5.530;2022-08-01T10:24:32;4.40;;;4.10;;
11066;SDS011;29763;50.904;5.530;2022-08-01T10:27:04;4.47;;;4.18;;
11066;SDS011;29763;50.904;5.530;2022-08-01T10:29:34;5.20;;;4.80;;
11066;SDS011;29763;50.904;5.530;2022-08-01T10:32:21;4.75;;;4.22;;
11066;SDS011;29763;50.904;5.530;2022-08-01T10:34:49;4.30;;;4.00;;
11066;SDS011;29763;50.904;5.530;2022-08-01T10:37:14;4.10;;;3.80;;
11066;SDS011;29763;50.904;5.530;2022-08-01T10:39:42;4.40;;;4.00;;
11066;SDS011;29763;50.904;5.530;2022-08-01T10:42:09;4.50;;;4.10;;
11066;SDS011;29763;50.904;5.530;2022-08-01T10:44:36;4.15;;;3.85;;
11066;SDS011;29763;50.904;5.530;2022-08-01T10:47:12;4.47;;;3.72;;
11066;SDS011;29763;50.904;5.530;2022-08-01T10:49:51;4.10;;;3.70;;
11066;SDS011;29763;50.904;5.530;2022-08-01T10:52:23;4.00;;;3.55;;
11066;SDS011;29763;50.904;5.530;2022-08-01T10:55:02;5.97;;;3.90;;
11066;SDS011;29763;50.904;5.530;2022-08-01T10:57:44;5.05;;;3.35;;
11066;SDS011;29763;50.904;5.530;2022-08-01T11:00:18;6.20;;;3.97;;
11066;SDS011;29763;50.904;5.530;2022-08-01T11:03:00;4.10;;;3.70;;
11066;SDS011;29763;50.904;5.530;2022-08-01T11:05:30;9.48;;;4.10;;
11066;SDS011;29763;50.904;5.530;2022-08-01T11:07:58;3.83;;;3.53;;
11066;SDS011;29763;50.904;5.530;2022-08-01T11:13:08;3.28;;;2.80;;
11066;SDS011;29763;50.904;5.530;2022-08-01T11:15:36;3.40;;;3.10;;
11066;SDS011;29763;50.904;5.530;2022-08-01T11:20:56;4.38;;;3.00;;
11066;SDS011;29763;50.904;5.530;2022-08-01T11:23:23;3.92;;;3.22;;
11066;SDS011;29763;50.904;5.530;2022-08-01T11:28:18;2.95;;;2.63;;
11066;SDS011;29763;50.904;5.530;2022-08-01T11:30:52;3.58;;;2.70;;
11066;SDS011;29763;50.904;5.530;2022-08-01T11:38:45;2.70;;;2.55;;
11066;SDS011;29763;50.904;5.530;2022-08-01T11:52:08;2.70;;;2.50;;
11066;SDS011;29763;50.904;5.530;2022-08-01T11:54:58;5.72;;;2.60;;
11066;SDS011;29763;50.904;5.530;2022-08-01T11:57:31;2.55;;;2.35;;
11066;SDS011;29763;50.904;5.530;2022-08-01T12:00:09;5.63;;;2.40;;
11066;SDS011;29763;50.904;5.530;2022-08-01T12:02:39;10.38;;;3.08;;
11066;SDS011;29763;50.904;5.530;2022-08-01T12:05:12;7.00;;;2.92;;
11066;SDS011;29763;50.904;5.530;2022-08-01T12:07:40;3.38;;;2.40;;
11066;SDS011;29763;50.904;5.530;2022-08-01T12:12:34;3.83;;;2.60;;
11066;SDS011;29763;50.904;5.530;2022-08-01T12:15:03;3.05;;;2.40;;
11066;SDS011;29763;50.904;5.530;2022-08-01T12:17:32;2.20;;;2.00;;
11066;SDS011;29763;50.904;5.530;2022-08-01T12:20:00;2.47;;;2.20;;
11066;SDS011;29763;50.904;5.530;2022-08-01T12:22:27;2.17;;;2.00;;
11066;SDS011;29763;50.904;5.530;2022-08-01T12:24:53;3.72;;;2.15;;
11066;SDS011;29763;50.904;5.530;2022-08-01T12:27:28;2.58;;;2.22;;
11066;SDS011;29763;50.904;5.530;2022-08-01T12:29:55;3.70;;;2.00;;
11066;SDS011;29763;50.904;5.530;2022-08-01T12:32:29;2.15;;;2.00;;
11066;SDS011;29763;50.904;5.530;2022-08-01T12:34:57;3.70;;;2.20;;
11066;SDS011;29763;50.904;5.530;2022-08-01T12:37:28;2.10;;;2.00;;
11066;SDS011;29763;50.904;5.530;2022-08-01T12:39:54;3.03;;;2.05;;
11066;SDS011;29763;50.904;5.530;2022-08-01T12:42:20;2.20;;;2.10;;
11066;SDS011;29763;50.904;5.530;2022-08-01T12:44:48;5.40;;;2.45;;
11066;SDS011;29763;50.904;5.530;2022-08-01T12:47:16;2.10;;;1.90;;
11066;SDS011;29763;50.904;5.530;2022-08-01T12:49:43;3.40;;;2.30;;
11066;SDS011;29763;50.904;5.530;2022-08-01T12:52:10;3.22;;;2.38;;
11066;SDS011;29763;50.904;5.530;2022-08-01T12:57:35;2.40;;;2.25;;
11066;SDS011;29763;50.904;5.530;2022-08-01T13:00:10;3.92;;;2.75;;
11066;SDS011;29763;50.904;5.530;2022-08-01T13:02:45;2.33;;;2.22;;
11066;SDS011;29763;50.904;5.530;2022-08-01T13:05:12;2.63;;;2.40;;
11066;SDS011;29763;50.904;5.530;2022-08-01T13:07:46;2.85;;;2.03;;
11066;SDS011;29763;50.904;5.530;2022-08-01T13:10:23;3.40;;;2.10;;
11066;SDS011;29763;50.904;5.530;2022-08-01T13:12:52;2.78;;;1.90;;
11066;SDS011;29763;50.904;5.530;2022-08-01T13:15:20;1.90;;;1.80;;
11066;SDS011;29763;50.904;5.530;2022-08-01T13:17:49;1.85;;;1.73;;
11066;SDS011;29763;50.904;5.530;2022-08-01T13:22:53;2.50;;;1.95;;
11066;SDS011;29763;50.904;5.530;2022-08-01T13:25:19;1.90;;;1.80;;
11066;SDS011;29763;50.904;5.530;2022-08-01T13:27:45;1.75;;;1.60;;
11066;SDS011;29763;50.904;5.530;2022-08-01T13:30:15;1.80;;;1.60;;
11066;SDS011;29763;50.904;5.530;2022-08-01T13:32:43;2.30;;;2.10;;
11066;SDS011;29763;50.904;5.530;2022-08-01T13:35:12;2.35;;;1.85;;
11066;SDS011;29763;50.904;5.530;2022-08-01T13:37:39;3.97;;;2.00;;
11066;SDS011;29763;50.904;5.530;2022-08-01T13:40:07;3.45;;;1.88;;
11066;SDS011;29763;50.904;5.530;2022-08-01T13:42:34;3.13;;;2.00;;
11066;SDS011;29763;50.904;5.530;2022-08-01T13:45:00;3.58;;;1.83;;
11066;SDS011;29763;50.904;5.530;2022-08-01T13:47:27;2.65;;;2.05;;
11066;SDS011;29763;50.904;5.530;2022-08-01T13:49:53;3.17;;;2.00;;
11066;SDS011;29763;50.904;5.530;2022-08-01T13:52:18;3.10;;;1.95;;
11066;SDS011;29763;50.904;5.530;2022-08-01T13:54:44;3.78;;;2.00;;
11066;SDS011;29763;50.904;5.530;2022-08-01T13:57:10;2.80;;;2.05;;
11066;SDS011;29763;50.904;5.530;2022-08-01T13:59:35;2.65;;;1.90;;
11066;SDS011;29763;50.904;5.530;2022-08-01T14:02:01;2.58;;;1.80;;
11066;SDS011;29763;50.904;5.530;2022-08-01T14:04:27;4.43;;;2.45;;
11066;SDS011;29763;50.904;5.530;2022-08-01T14:06:52;2.80;;;2.60;;
11066;SDS011;29763;50.904;5.530;2022-08-01T14:09:18;2.88;;;2.50;;
11066;SDS011;29763;50.904;5.530;2022-08-01T14:11:44;3.05;;;2.20;;
11066;SDS011;29763;50.904;5.530;2022-08-01T14:14:10;4.10;;;2.17;;
11066;SDS011;29763;50.904;5.530;2022-08-01T14:16:36;3.10;;;2.22;;
11066;SDS011;29763;50.904;5.530;2022-08-01T14:19:02;2.88;;;2.25;;
11066;SDS011;29763;50.904;5.530;2022-08-01T14:21:28;3.33;;;2.30;;
11066;SDS011;29763;50.904;5.530;2022-08-01T14:23:54;2.63;;;2.40;;
11066;SDS011;29763;50.904;5.530;2022-08-01T14:26:20;5.10;;;2.20;;
11066;SDS011;29763;50.904;5.530;2022-08-01T14:28:45;2.63;;;2.00;;
11066;SDS011;29763;50.904;5.530;2022-08-01T14:31:11;3.10;;;2.05;;
11066;SDS011;29763;50.904;5.530;2022-08-01T14:33:37;3.17;;;2.20;;
11066;SDS011;29763;50.904;5.530;2022-08-01T14:36:03;3.13;;;1.90;;
11066;SDS011;29763;50.904;5.530;2022-08-01T14:38:29;2.80;;;2.15;;
11066;SDS011;29763;50.904;5.530;2022-08-01T14:40:54;2.70;;;1.98;;
11066;SDS011;29763;50.904;5.530;2022-08-01T14:43:20;3.00;;;2.20;;
11066;SDS011;29763;50.904;5.530;2022-08-01T14:45:46;4.18;;;2.22;;
11066;SDS011;29763;50.904;5.530;2022-08-01T14:48:15;2.40;;;2.20;;
11066;SDS011;29763;50.904;5.530;2022-08-01T14:50:41;3.33;;;2.10;;
11066;SDS011;29763;50.904;5.530;2022-08-01T14:53:07;2.35;;;2.05;;
11066;SDS011;29763;50.904;5.530;2022-08-01T14:55:32;3.13;;;2.10;;
11066;SDS011;29763;50.904;5.530;2022-08-01T14:57:58;2.92;;;1.90;;
11066;SDS011;29763;50.904;5.530;2022-08-01T15:00:24;2.30;;;2.10;;
11066;SDS011;29763;50.904;5.530;2022-08-01T15:02:49;2.88;;;2.00;;
11066;SDS011;29763;50.904;5.530;2022-08-01T15:05:15;2.28;;;1.83;;
11066;SDS011;29763;50.904;5.530;2022-08-01T15:07:41;3.45;;;2.05;;
11066;SDS011;29763;50.904;5.530;2022-08-01T15:10:07;2.78;;;2.10;;
11066;SDS011;29763;50.904;5.530;2022-08-01T15:12:34;2.53;;;2.10;;
11066;SDS011;29763;50.904;5.530;2022-08-01T15:15:00;2.45;;;2.15;;
11066;SDS011;29763;50.904;5.530;2022-08-01T15:17:30;3.25;;;2.10;;
11066;SDS011;29763;50.904;5.530;2022-08-01T15:20:00;2.33;;;1.90;;
11066;SDS011;29763;50.904;5.530;2022-08-01T15:22:29;3.03;;;2.10;;
11066;SDS011;29763;50.904;5.530;2022-08-01T15:24:56;2.25;;;2.08;;
11066;SDS011;29763;50.904;5.530;2022-08-01T15:27:23;2.30;;;2.20;;
11066;SDS011;29763;50.904;5.530;2022-08-01T15:29:50;2.72;;;2.30;;
11066;SDS011;29763;50.904;5.530;2022-08-01T15:32:15;3.78;;;2.00;;
11066;SDS011;29763;50.904;5.530;2022-08-01T15:34:41;2.65;;;2.15;;
11066;SDS011;29763;50.904;5.530;2022-08-01T15:37:07;2.08;;;1.88;;
11066;SDS011;29763;50.904;5.530;2022-08-01T15:39:34;3.10;;;2.00;;